Time;durP1;ratioP1;P1;durP2;ratioP2;P2;SDS_P1;SDS_P2;PMS_P1;PMS_P2;Temp;Humidity;BMP_temperature;BMP_pressure;BME280_temperature;BME280_humidity;BME280_pressure;Samples;Min_cycle;Max_cycle;Signal;HPM_P1;HPM_P2
2022/03/28 00:00:25;;;;;;;193.05;51.13;;;;;;;;;;6262231;28;20059;-61
2022/03/28 00:03:41;;;;;;;162.75;45.95;;;;;;;;;;6261153;28;20048;-61
2022/03/28 00:06:41;;;;;;;164.85;48.53;;;;;;;;;;6264922;28;20048;-64
2022/03/28 00:09:42;;;;;;;174.02;50.63;;;;;;;;;;6266114;28;20127;-64
2022/03/28 00:12:43;;;;;;;159.60;45.85;;;;;;;;;;6263190;28;20377;-64
2022/03/28 00:15:43;;;;;;;178.82;48.83;;;;;;;;;;6264428;28;20076;-60
2022/03/28 00:18:44;;;;;;;148.88;47.80;;;;;;;;;;6260726;28;20121;-61
2022/03/28 00:21:44;;;;;;;152.65;44.17;;;;;;;;;;6259995;28;20128;-61
2022/03/28 00:24:45;;;;;;;170.75;47.63;;;;;;;;;;6264087;28;20045;-60
2022/03/28 00:27:46;;;;;;;140.05;43.35;;;;;;;;;;6267151;28;20053;-63
2022/03/28 00:30:46;;;;;;;148.38;41.05;;;;;;;;;;6264181;28;20246;-63
2022/03/28 00:33:47;;;;;;;135.68;42.58;;;;;;;;;;6264884;28;20498;-59
2022/03/28 00:36:50;;;;;;;149.63;46.75;;;;;;;;;;6264613;28;20048;-62
2022/03/28 00:39:50;;;;;;;;;;;;;;;;;;6262904;28;20045;-63
2022/03/28 00:42:51;;;;;;;168.85;46.22;;;;;;;;;;6261413;28;19925;-63
2022/03/28 00:45:51;;;;;;;157.75;46.80;;;;;;;;;;6265733;28;20147;-59
2022/03/28 00:48:52;;;;;;;158.10;50.70;;;;;;;;;;6263820;28;20052;-63
2022/03/28 00:51:54;;;;;;;171.57;49.90;;;;;;;;;;6261087;28;20080;-63
2022/03/28 00:54:57;;;;;;;175.75;54.63;;;;;;;;;;6260463;28;20068;-59
2022/03/28 00:57:58;;;;;;;158.30;49.33;;;;;;;;;;6260333;28;20049;-64
2022/03/28 01:00:58;;;;;;;146.45;46.85;;;;;;;;;;6261048;28;20060;-60
2022/03/28 01:03:59;;;;;;;158.55;47.83;;;;;;;;;;6266059;28;20084;-60
2022/03/28 01:07:00;;;;;;;166.23;52.42;;;;;;;;;;6266301;28;20059;-65
2022/03/28 01:10:02;;;;;;;170.15;49.42;;;;;;;;;;6264460;28;20072;-63
2022/03/28 01:13:03;;;;;;;148.27;48.83;;;;;;;;;;6267724;28;20049;-62
2022/03/28 01:16:05;;;;;;;150.57;46.78;;;;;;;;;;6259108;28;20171;-60
2022/03/28 01:19:05;;;;;;;147.70;48.53;;;;;;;;;;6258341;28;20060;-61
2022/03/28 01:22:06;;;;;;;157.85;50.10;;;;;;;;;;6258624;28;20134;-62
2022/03/28 01:25:08;;;;;;;152.05;51.88;;;;;;;;;;6258922;28;20053;-60
2022/03/28 01:28:09;;;;;;;157.90;52.43;;;;;;;;;;6255539;28;20505;-63
2022/03/28 01:31:10;;;;;;;158.23;50.83;;;;;;;;;;6259008;28;20545;-62
2022/03/28 01:34:18;;;;;;;147.85;48.88;;;;;;;;;;6256361;28;20128;-61
2022/03/28 01:37:19;;;;;;;154.90;47.67;;;;;;;;;;6258085;28;20049;-62
2022/03/28 01:40:19;;;;;;;152.07;48.67;;;;;;;;;;6255494;28;20136;-65
2022/03/28 01:43:21;;;;;;;158.80;54.47;;;;;;;;;;6257234;28;20052;-62
2022/03/28 01:46:22;;;;;;;157.90;55.10;;;;;;;;;;6257955;28;20140;-61
2022/03/28 01:49:22;;;;;;;157.65;55.45;;;;;;;;;;6256718;28;20424;-65
2022/03/28 01:52:23;;;;;;;166.30;55.40;;;;;;;;;;6256071;28;20106;-60
2022/03/28 01:55:24;;;;;;;158.10;52.85;;;;;;;;;;6259935;28;20072;-60
2022/03/28 01:58:25;;;;;;;159.93;54.13;;;;;;;;;;6258845;28;20051;-62
2022/03/28 02:01:25;;;;;;;166.20;54.45;;;;;;;;;;6256195;28;20068;-63
2022/03/28 02:04:26;;;;;;;152.20;53.85;;;;;;;;;;6256972;28;20055;-61
2022/03/28 02:07:26;;;;;;;153.85;51.42;;;;;;;;;;6258404;28;20333;-59
2022/03/28 02:10:27;;;;;;;144.85;50.10;;;;;;;;;;6256450;28;20052;-61
2022/03/28 02:13:28;;;;;;;136.40;50.00;;;;;;;;;;6260321;28;20052;-60
2022/03/28 02:16:28;;;;;;;138.57;49.72;;;;;;;;;;6258572;28;20512;-64
2022/03/28 02:19:30;;;;;;;137.82;48.35;;;;;;;;;;6261033;28;20454;-63
2022/03/28 02:22:32;;;;;;;126.03;44.92;;;;;;;;;;6261136;28;20049;-61
2022/03/28 02:25:37;;;;;;;135.52;47.47;;;;;;;;;;6261905;28;20081;-61
2022/03/28 02:28:37;;;;;;;142.35;45.53;;;;;;;;;;6262406;28;20045;-61
2022/03/28 02:31:38;;;;;;;134.88;46.72;;;;;;;;;;6261592;28;20059;-61
2022/03/28 02:34:39;;;;;;;130.82;48.10;;;;;;;;;;6262426;28;20045;-63
2022/03/28 02:37:40;;;;;;;134.38;45.80;;;;;;;;;;6262293;28;20161;-60
2022/03/28 02:40:40;;;;;;;130.70;46.03;;;;;;;;;;6259236;28;20049;-63
2022/03/28 02:43:41;;;;;;;127.07;46.13;;;;;;;;;;6259635;28;20095;-62
2022/03/28 02:46:41;;;;;;;122.22;44.20;;;;;;;;;;6261112;28;20563;-61
2022/03/28 02:49:42;;;;;;;117.80;42.10;;;;;;;;;;6261922;28;20078;-61
2022/03/28 02:52:43;;;;;;;129.40;45.15;;;;;;;;;;6264044;28;20049;-62
2022/03/28 02:55:44;;;;;;;127.55;44.53;;;;;;;;;;6261892;28;20112;-60
2022/03/28 02:58:44;;;;;;;121.40;44.83;;;;;;;;;;6263833;28;20045;-63
2022/03/28 03:01:46;;;;;;;108.10;41.65;;;;;;;;;;6260108;28;20044;-60
2022/03/28 03:04:46;;;;;;;114.25;39.83;;;;;;;;;;6263212;28;20075;-63
2022/03/28 03:07:51;;;;;;;105.05;36.83;;;;;;;;;;6262940;28;20060;-62
2022/03/28 03:10:52;;;;;;;100.22;36.70;;;;;;;;;;6260077;28;20061;-63
2022/03/28 03:13:53;;;;;;;84.90;33.55;;;;;;;;;;6260155;28;20049;-62
2022/03/28 03:16:53;;;;;;;98.20;35.35;;;;;;;;;;6265522;28;20527;-62
2022/03/28 03:19:54;;;;;;;92.78;35.55;;;;;;;;;;6263193;28;20511;-63
2022/03/28 03:22:54;;;;;;;103.10;36.55;;;;;;;;;;6261039;28;20128;-64
2022/03/28 03:25:55;;;;;;;97.40;33.13;;;;;;;;;;6260339;28;20080;-64
2022/03/28 03:28:58;;;;;;;87.07;32.65;;;;;;;;;;6258544;28;20419;-62
2022/03/28 03:31:58;;;;;;;;;;;;;;;;;;6259866;28;20086;-60
2022/03/28 03:34:59;;;;;;;92.55;34.35;;;;;;;;;;6263413;28;20015;-63
2022/03/28 03:37:59;;;;;;;87.63;32.55;;;;;;;;;;6259636;28;20045;-63
2022/03/28 03:41:00;;;;;;;87.07;32.75;;;;;;;;;;6258123;28;20155;-62
2022/03/28 03:44:01;;;;;;;89.25;32.65;;;;;;;;;;6260030;28;20045;-64
2022/03/28 03:47:02;;;;;;;94.20;34.03;;;;;;;;;;6262456;28;20064;-64
2022/03/28 03:50:04;;;;;;;82.90;32.95;;;;;;;;;;6260371;28;20094;-61
2022/03/28 03:53:05;;;;;;;90.05;32.92;;;;;;;;;;6263067;28;20053;-64
2022/03/28 03:56:05;;;;;;;89.45;34.00;;;;;;;;;;6262689;28;20480;-62
2022/03/28 03:59:06;;;;;;;93.47;34.28;;;;;;;;;;6260093;28;20972;-65
2022/03/28 04:02:07;;;;;;;90.63;34.90;;;;;;;;;;6259133;28;20102;-65
2022/03/28 04:05:08;;;;;;;79.47;32.38;;;;;;;;;;6263790;28;20057;-61
2022/03/28 04:08:09;;;;;;;84.82;31.95;;;;;;;;;;6259878;28;20503;-62
2022/03/28 04:11:09;;;;;;;96.70;32.58;;;;;;;;;;6258423;28;20207;-61
2022/03/28 04:14:10;;;;;;;96.65;34.15;;;;;;;;;;6260054;28;20080;-62
2022/03/28 04:17:10;;;;;;;94.45;33.40;;;;;;;;;;6260532;28;20047;-62
2022/03/28 04:20:13;;;;;;;91.15;33.67;;;;;;;;;;6259703;28;20057;-60
2022/03/28 04:23:14;;;;;;;84.28;32.22;;;;;;;;;;6261043;28;20060;-61
2022/03/28 04:26:14;;;;;;;80.80;32.70;;;;;;;;;;6256187;28;20455;-64
2022/03/28 04:29:15;;;;;;;84.80;32.10;;;;;;;;;;6258326;28;20135;-62
2022/03/28 04:32:16;;;;;;;87.95;30.65;;;;;;;;;;6259401;28;20090;-63
2022/03/28 04:35:16;;;;;;;83.10;30.98;;;;;;;;;;6256073;28;21059;-62
2022/03/28 04:38:17;;;;;;;84.93;28.92;;;;;;;;;;6258711;28;20057;-64
2022/03/28 04:41:18;;;;;;;76.15;28.70;;;;;;;;;;6257016;28;20048;-62
2022/03/28 04:44:19;;;;;;;94.60;30.83;;;;;;;;;;6261247;28;20509;-62
2022/03/28 04:47:19;;;;;;;81.28;30.08;;;;;;;;;;6256399;28;20053;-60
2022/03/28 04:50:20;;;;;;;71.00;27.63;;;;;;;;;;6260834;28;20052;-62
2022/03/28 04:53:21;;;;;;;74.93;26.98;;;;;;;;;;6263022;28;20126;-63
2022/03/28 04:56:21;;;;;;;72.10;27.73;;;;;;;;;;6264178;28;20045;-62
2022/03/28 04:59:22;;;;;;;71.55;27.75;;;;;;;;;;6262670;28;20136;-64
2022/03/28 05:02:23;;;;;;;68.82;27.55;;;;;;;;;;6264640;28;20095;-60
2022/03/28 05:05:23;;;;;;;63.85;26.40;;;;;;;;;;6264653;28;20041;-60
2022/03/28 05:08:24;;;;;;;61.40;25.30;;;;;;;;;;6265321;28;20052;-59
2022/03/28 05:11:24;;;;;;;73.45;25.55;;;;;;;;;;6264037;28;20128;-62
2022/03/28 05:14:25;;;;;;;59.20;23.60;;;;;;;;;;6266514;28;20049;-62
2022/03/28 05:17:28;;;;;;;61.95;22.55;;;;;;;;;;6258419;28;20132;-62
2022/03/28 05:20:29;;;;;;;60.85;23.52;;;;;;;;;;6261082;28;20041;-62
2022/03/28 05:23:29;;;;;;;64.80;23.40;;;;;;;;;;6263943;28;20266;-62
2022/03/28 05:26:30;;;;;;;63.63;22.77;;;;;;;;;;6260682;28;20041;-62
2022/03/28 05:29:30;;;;;;;57.75;23.38;;;;;;;;;;6261850;28;20190;-60
2022/03/28 05:32:31;;;;;;;57.50;22.42;;;;;;;;;;6262005;28;20048;-65
2022/03/28 05:35:32;;;;;;;63.85;25.23;;;;;;;;;;6256279;28;20929;-63
2022/03/28 05:38:33;;;;;;;70.70;25.50;;;;;;;;;;6260621;28;20072;-62
2022/03/28 05:41:34;;;;;;;64.63;26.58;;;;;;;;;;6263175;28;20091;-61
2022/03/28 05:44:37;;;;;;;63.97;24.33;;;;;;;;;;6266234;28;20420;-63
2022/03/28 05:47:39;;;;;;;63.38;23.42;;;;;;;;;;6263430;28;20059;-63
2022/03/28 05:50:39;;;;;;;64.00;22.92;;;;;;;;;;6258933;28;20076;-61
2022/03/28 05:53:40;;;;;;;58.55;23.30;;;;;;;;;;6265310;28;20146;-60
2022/03/28 05:56:41;;;;;;;55.70;23.13;;;;;;;;;;6266247;28;20091;-62
2022/03/28 05:59:42;;;;;;;54.95;22.80;;;;;;;;;;6269245;28;20051;-62
2022/03/28 06:02:43;;;;;;;65.65;21.38;;;;;;;;;;6266130;28;20052;-63
2022/03/28 06:05:44;;;;;;;49.92;18.52;;;;;;;;;;6266080;28;20087;-61
2022/03/28 06:08:44;;;;;;;47.55;16.25;;;;;;;;;;6266652;28;20191;-62
2022/03/28 06:11:45;;;;;;;45.75;16.83;;;;;;;;;;6265657;28;20076;-62
2022/03/28 06:14:45;;;;;;;40.35;14.35;;;;;;;;;;6264968;28;20045;-61
2022/03/28 06:17:46;;;;;;;40.65;14.80;;;;;;;;;;6265156;28;20135;-65
2022/03/28 06:20:47;;;;;;;37.95;13.73;;;;;;;;;;6262544;28;20131;-62
2022/03/28 06:23:47;;;;;;;37.85;14.80;;;;;;;;;;6263871;28;20086;-61
2022/03/28 06:26:48;;;;;;;43.25;14.63;;;;;;;;;;6265297;28;20045;-61
2022/03/28 06:29:49;;;;;;;34.47;12.90;;;;;;;;;;6263285;28;20073;-60
2022/03/28 06:32:49;;;;;;;36.83;14.63;;;;;;;;;;6264827;28;20041;-61
2022/03/28 06:35:52;;;;;;;34.92;13.68;;;;;;;;;;6267070;28;20549;-62
2022/03/28 06:38:53;;;;;;;36.78;14.27;;;;;;;;;;6267615;28;20418;-64
2022/03/28 06:41:53;;;;;;;31.70;13.50;;;;;;;;;;6267654;28;20047;-62
2022/03/28 06:44:54;;;;;;;40.10;13.45;;;;;;;;;;6269184;28;20134;-61
2022/03/28 06:47:55;;;;;;;37.95;16.80;;;;;;;;;;6266708;28;20055;-64
2022/03/28 06:50:56;;;;;;;36.60;15.13;;;;;;;;;;6266077;28;20041;-63
2022/03/28 06:53:56;;;;;;;42.13;14.02;;;;;;;;;;6269238;28;20112;-63
2022/03/28 06:56:57;;;;;;;32.28;12.05;;;;;;;;;;6268458;28;20045;-61
2022/03/28 06:59:57;;;;;;;33.75;14.07;;;;;;;;;;6266303;28;20165;-59
2022/03/28 07:02:58;;;;;;;33.90;14.05;;;;;;;;;;6268091;28;20515;-61
2022/03/28 07:05:59;;;;;;;41.10;14.68;;;;;;;;;;6267837;28;20132;-62
2022/03/28 07:09:01;;;;;;;41.60;15.05;;;;;;;;;;6266366;28;20072;-61
2022/03/28 07:12:03;;;;;;;30.45;13.63;;;;;;;;;;6268119;28;20055;-63
2022/03/28 07:15:05;;;;;;;38.17;14.02;;;;;;;;;;6268410;28;20550;-60
2022/03/28 07:18:08;;;;;;;36.42;14.13;;;;;;;;;;6267375;28;20053;-61
2022/03/28 07:21:09;;;;;;;57.35;15.80;;;;;;;;;;6267323;28;20044;-60
2022/03/28 07:24:10;;;;;;;35.00;14.10;;;;;;;;;;6268824;28;20076;-63
2022/03/28 07:27:10;;;;;;;35.22;14.50;;;;;;;;;;6268682;28;20665;-61
2022/03/28 07:30:12;;;;;;;36.17;13.20;;;;;;;;;;6266077;28;20068;-64
2022/03/28 07:33:13;;;;;;;32.40;13.23;;;;;;;;;;6267766;28;20049;-63
2022/03/28 07:36:15;;;;;;;40.35;14.02;;;;;;;;;;6263299;28;20037;-62
2022/03/28 07:39:16;;;;;;;36.20;13.55;;;;;;;;;;6259748;28;20155;-62
2022/03/28 07:42:16;;;;;;;34.60;13.95;;;;;;;;;;6262280;28;20241;-60
2022/03/28 07:45:17;;;;;;;35.63;13.88;;;;;;;;;;6261471;28;20496;-61
2022/03/28 07:48:18;;;;;;;32.25;13.15;;;;;;;;;;6262559;28;20148;-62
2022/03/28 07:51:19;;;;;;;40.15;13.77;;;;;;;;;;6262482;28;20148;-61
2022/03/28 07:54:19;;;;;;;39.05;13.98;;;;;;;;;;6261299;28;20140;-62
2022/03/28 07:57:20;;;;;;;33.13;13.88;;;;;;;;;;6264532;28;20552;-64
2022/03/28 08:00:20;;;;;;;40.78;14.60;;;;;;;;;;6266090;28;20129;-61
2022/03/28 08:03:21;;;;;;;45.20;20.92;;;;;;;;;;6267027;28;20049;-61
2022/03/28 08:06:22;;;;;;;33.17;13.23;;;;;;;;;;6263092;28;20056;-63
2022/03/28 08:09:22;;;;;;;35.70;14.50;;;;;;;;;;6261496;28;20638;-62
2022/03/28 08:12:23;;;;;;;33.53;14.43;;;;;;;;;;6262885;28;20531;-63
2022/03/28 08:15:24;;;;;;;36.10;12.82;;;;;;;;;;6261949;28;20054;-61
2022/03/28 08:18:26;;;;;;;32.53;14.13;;;;;;;;;;6259577;28;20037;-63
2022/03/28 08:21:27;;;;;;;41.50;15.23;;;;;;;;;;6261245;28;20060;-59
2022/03/28 08:24:27;;;;;;;43.30;16.80;;;;;;;;;;6261742;28;20496;-61
2022/03/28 08:27:28;;;;;;;33.53;13.55;;;;;;;;;;6261260;28;20140;-62
2022/03/28 08:30:29;;;;;;;41.08;14.68;;;;;;;;;;6259928;28;20171;-63
2022/03/28 08:33:29;;;;;;;47.83;17.38;;;;;;;;;;6264002;28;20045;-64
2022/03/28 08:36:30;;;;;;;35.50;13.10;;;;;;;;;;6262177;28;20049;-60
2022/03/28 08:39:31;;;;;;;27.17;11.05;;;;;;;;;;6262392;28;20514;-64
2022/03/28 08:42:33;;;;;;;32.70;13.20;;;;;;;;;;6258748;28;21200;-65
2022/03/28 08:45:38;;;;;;;29.38;12.18;;;;;;;;;;6259817;28;20041;-61
2022/03/28 08:48:41;;;;;;;33.80;13.18;;;;;;;;;;6256015;28;20666;-66
2022/03/28 08:51:42;;;;;;;31.45;12.23;;;;;;;;;;6256801;28;20045;-65
2022/03/28 08:54:43;;;;;;;28.63;11.15;;;;;;;;;;6249500;28;20475;-64
2022/03/28 08:57:44;;;;;;;32.53;12.40;;;;;;;;;;6258748;28;20073;-65
2022/03/28 09:00:46;;;;;;;33.33;11.77;;;;;;;;;;6258284;28;20140;-63
2022/03/28 09:03:47;;;;;;;27.70;11.05;;;;;;;;;;6264927;28;20080;-65
2022/03/28 09:06:48;;;;;;;32.95;11.32;;;;;;;;;;6267020;28;20060;-66
2022/03/28 09:09:59;;;;;;;33.35;11.85;;;;;;;;;;6265766;28;20407;-65
2022/03/28 09:13:10;;;;;;;23.70;9.70;;;;;;;;;;6263920;28;20131;-60
2022/03/28 09:16:18;;;;;;;31.27;10.97;;;;;;;;;;6263393;28;20075;-65
2022/03/28 09:19:18;;;;;;;30.67;10.52;;;;;;;;;;6259965;28;20301;-66
2022/03/28 09:22:28;;;;;;;30.55;10.95;;;;;;;;;;6260595;28;20533;-63
2022/03/28 09:25:28;;;;;;;29.48;10.07;;;;;;;;;;6263042;28;20080;-66
2022/03/28 09:28:47;;;;;;;28.42;11.93;;;;;;;;;;6262546;28;20060;-68
2022/03/28 09:31:48;;;;;;;29.63;11.38;;;;;;;;;;6264504;28;20384;-64
2022/03/28 09:35:06;;;;;;;27.13;11.35;;;;;;;;;;6265183;28;20149;-65
2022/03/28 09:38:08;;;;;;;32.15;11.75;;;;;;;;;;6263442;28;20103;-62
2022/03/28 09:41:08;;;;;;;31.30;12.10;;;;;;;;;;6266034;28;20049;-66
2022/03/28 09:44:09;;;;;;;30.45;11.82;;;;;;;;;;6262919;28;20079;-61
2022/03/28 09:47:11;;;;;;;32.35;11.63;;;;;;;;;;6264643;28;20425;-63
2022/03/28 09:50:11;;;;;;;29.50;11.32;;;;;;;;;;6267383;28;20150;-62
2022/03/28 09:53:19;;;;;;;33.75;11.70;;;;;;;;;;6263622;28;20048;-62
2022/03/28 09:56:19;;;;;;;29.45;11.02;;;;;;;;;;6263578;28;20064;-63
2022/03/28 09:59:21;;;;;;;26.45;11.00;;;;;;;;;;6263293;28;20084;-62
2022/03/28 10:02:24;;;;;;;28.30;11.57;;;;;;;;;;6264520;28;20482;-64
2022/03/28 10:05:25;;;;;;;30.88;11.73;;;;;;;;;;6263152;28;20278;-67
2022/03/28 10:08:27;;;;;;;28.23;11.20;;;;;;;;;;6263627;28;20136;-67
2022/03/28 10:11:28;;;;;;;31.13;10.73;;;;;;;;;;6264563;28;20060;-66
2022/03/28 10:14:30;;;;;;;41.85;11.93;;;;;;;;;;6262163;28;20124;-65
2022/03/28 10:17:32;;;;;;;29.85;10.77;;;;;;;;;;6263731;28;20075;-62
2022/03/28 10:20:33;;;;;;;32.37;11.73;;;;;;;;;;6265537;28;20059;-63
2022/03/28 10:23:46;;;;;;;31.73;11.45;;;;;;;;;;6257535;28;20050;-61
2022/03/28 10:26:52;;;;;;;25.80;10.80;;;;;;;;;;6263644;28;20048;-63
2022/03/28 10:29:53;;;;;;;27.65;11.07;;;;;;;;;;6254398;28;20064;-63
2022/03/28 10:33:11;;;;;;;31.98;12.38;;;;;;;;;;6243077;28;20136;-66
2022/03/28 10:36:24;;;;;;;30.50;11.88;;;;;;;;;;6243994;28;20100;-65
2022/03/28 10:39:36;;;;;;;31.48;12.38;;;;;;;;;;6243596;28;20054;-62
2022/03/28 10:42:38;;;;;;;26.98;12.50;;;;;;;;;;6245373;28;20780;-64
2022/03/28 10:45:46;;;;;;;34.08;14.57;;;;;;;;;;6237665;28;20072;-66
2022/03/28 10:48:48;;;;;;;26.02;11.27;;;;;;;;;;6244574;28;20052;-62
2022/03/28 10:51:49;;;;;;;31.73;12.75;;;;;;;;;;6242381;28;20056;-65
2022/03/28 10:54:51;;;;;;;32.75;12.60;;;;;;;;;;6243762;28;20484;-62
2022/03/28 10:57:51;;;;;;;24.35;10.65;;;;;;;;;;6245216;28;20052;-62
2022/03/28 11:01:07;;;;;;;32.58;12.55;;;;;;;;;;6240008;28;20038;-68
2022/03/28 11:04:22;;;;;;;28.65;11.55;;;;;;;;;;6244737;28;20539;-64
2022/03/28 11:07:24;;;;;;;28.70;11.13;;;;;;;;;;6242699;28;20064;-64
2022/03/28 11:10:26;;;;;;;28.98;11.32;;;;;;;;;;6241040;28;20577;-64
2022/03/28 11:13:32;;;;;;;;;;;;;;;;;;6241598;28;20130;-59
2022/03/28 11:16:44;;;;;;;24.02;11.15;;;;;;;;;;6242147;28;19976;-61
2022/03/28 11:19:56;;;;;;;23.23;9.07;;;;;;;;;;6239451;28;20195;-64
2022/03/28 11:23:08;;;;;;;26.52;10.20;;;;;;;;;;6241404;28;20083;-61
2022/03/28 11:26:11;;;;;;;23.50;10.25;;;;;;;;;;6242013;28;20048;-61
2022/03/28 11:29:12;;;;;;;36.40;11.77;;;;;;;;;;6237900;28;20072;-59
2022/03/28 11:32:19;;;;;;;24.45;9.60;;;;;;;;;;6237637;28;20077;-59
2022/03/28 11:35:19;;;;;;;23.35;10.07;;;;;;;;;;6242915;28;20076;-64
2022/03/28 11:38:22;;;;;;;26.33;10.77;;;;;;;;;;6241917;28;20061;-61
2022/03/28 11:41:28;;;;;;;25.10;10.07;;;;;;;;;;6238905;28;20064;-63
2022/03/28 11:44:34;;;;;;;30.08;10.07;;;;;;;;;;6243127;28;20411;-64
2022/03/28 11:47:37;;;;;;;27.67;10.32;;;;;;;;;;6243143;28;20104;-61
2022/03/28 11:50:38;;;;;;;27.92;10.18;;;;;;;;;;6238142;28;20057;-62
2022/03/28 11:53:39;;;;;;;23.10;10.20;;;;;;;;;;6241687;28;20041;-60
2022/03/28 12:00:00;;;;;;;24.85;10.20;;;;;;;;;;6237268;28;20045;-61
2022/03/28 12:03:01;;;;;;;22.00;9.52;;;;;;;;;;6240839;28;20605;-61
2022/03/28 12:06:02;;;;;;;22.65;9.20;;;;;;;;;;6239526;28;20041;-60
2022/03/28 12:09:06;;;;;;;22.20;9.27;;;;;;;;;;6243157;28;20831;-62
2022/03/28 12:12:07;;;;;;;20.20;8.75;;;;;;;;;;6236145;28;20087;-62
2022/03/28 12:15:10;;;;;;;27.10;9.50;;;;;;;;;;6242003;28;21035;-61
2022/03/28 12:18:11;;;;;;;25.95;9.95;;;;;;;;;;6244005;28;20100;-61
2022/03/28 12:21:12;;;;;;;21.80;9.73;;;;;;;;;;6239019;28;20102;-65
2022/03/28 12:24:13;;;;;;;23.90;9.95;;;;;;;;;;6240385;28;20060;-63
2022/03/28 12:27:18;;;;;;;23.25;10.32;;;;;;;;;;6241633;28;20053;-63
2022/03/28 12:30:22;;;;;;;20.40;10.13;;;;;;;;;;6238205;28;21199;-61
2022/03/28 12:33:28;;;;;;;24.45;11.93;;;;;;;;;;6236735;28;20187;-63
2022/03/28 12:36:30;;;;;;;25.60;11.00;;;;;;;;;;6241778;28;20646;-64
2022/03/28 12:39:31;;;;;;;31.17;13.55;;;;;;;;;;6234900;28;20423;-62
2022/03/28 12:42:33;;;;;;;26.73;12.55;;;;;;;;;;6236369;28;20055;-61
2022/03/28 12:45:34;;;;;;;24.40;10.93;;;;;;;;;;6237696;28;20111;-63
2022/03/28 12:48:44;;;;;;;26.33;11.25;;;;;;;;;;6240033;28;20098;-63
2022/03/28 12:51:47;;;;;;;30.10;13.25;;;;;;;;;;6239233;28;20127;-63
2022/03/28 12:54:54;;;;;;;35.83;14.15;;;;;;;;;;6238190;28;20053;-61
2022/03/28 12:57:56;;;;;;;26.58;12.10;;;;;;;;;;6242502;28;20060;-62
2022/03/28 13:01:03;;;;;;;25.60;11.80;;;;;;;;;;6241159;28;20064;-62
2022/03/28 13:04:11;;;;;;;28.17;11.10;;;;;;;;;;6247743;28;20511;-61
2022/03/28 13:07:26;;;;;;;23.80;10.48;;;;;;;;;;6242140;28;20060;-64
2022/03/28 13:10:27;;;;;;;23.48;10.60;;;;;;;;;;6247122;28;20052;-60
2022/03/28 13:13:35;;;;;;;22.65;10.40;;;;;;;;;;6240120;28;20132;-61
2022/03/28 13:16:35;;;;;;;25.90;10.25;;;;;;;;;;6240593;28;20084;-61
2022/03/28 13:19:41;;;;;;;25.17;9.95;;;;;;;;;;6238575;28;20053;-63
2022/03/28 13:22:45;;;;;;;23.20;10.52;;;;;;;;;;6239167;28;20084;-63
2022/03/28 13:25:46;;;;;;;26.77;11.00;;;;;;;;;;6241187;28;20053;-63
2022/03/28 13:28:47;;;;;;;29.48;11.45;;;;;;;;;;6242345;28;20056;-63
2022/03/28 13:31:48;;;;;;;29.00;11.88;;;;;;;;;;6236736;28;20041;-63
2022/03/28 13:34:49;;;;;;;25.50;11.10;;;;;;;;;;6239688;28;21140;-63
2022/03/28 13:38:05;;;;;;;23.88;10.80;;;;;;;;;;6240798;28;20056;-63
2022/03/28 13:41:06;;;;;;;25.23;10.02;;;;;;;;;;6240767;28;20180;-62
2022/03/28 13:44:07;;;;;;;28.05;10.93;;;;;;;;;;6239246;28;20298;-63
2022/03/28 13:47:09;;;;;;;23.37;10.77;;;;;;;;;;6240487;28;20057;-65
2022/03/28 13:50:09;;;;;;;22.60;10.33;;;;;;;;;;6240245;28;20306;-62
2022/03/28 13:53:10;;;;;;;24.53;11.13;;;;;;;;;;6239199;28;20187;-62
2022/03/28 13:56:11;;;;;;;27.17;11.53;;;;;;;;;;6237817;28;20049;-62
2022/03/28 13:59:12;;;;;;;20.25;9.77;;;;;;;;;;6242560;28;20415;-62
2022/03/28 14:02:12;;;;;;;23.17;10.23;;;;;;;;;;6236726;28;20075;-63
2022/03/28 14:05:13;;;;;;;21.73;10.57;;;;;;;;;;6239752;28;20065;-62
2022/03/28 14:08:14;;;;;;;24.37;10.90;;;;;;;;;;6240802;28;20049;-63
2022/03/28 14:11:14;;;;;;;23.70;9.88;;;;;;;;;;6236953;28;20054;-62
2022/03/28 14:14:15;;;;;;;25.20;10.60;;;;;;;;;;6244377;28;20117;-66
2022/03/28 14:17:16;;;;;;;26.40;11.33;;;;;;;;;;6246711;28;20120;-65
2022/03/28 14:20:18;;;;;;;28.40;12.60;;;;;;;;;;6242423;28;20052;-64
2022/03/28 14:23:19;;;;;;;25.38;11.20;;;;;;;;;;6247632;28;20150;-59
2022/03/28 14:26:21;;;;;;;23.70;10.63;;;;;;;;;;6244748;28;21468;-63
2022/03/28 14:29:22;;;;;;;;;;;;;;;;;;6243207;28;20057;-61
2022/03/28 14:32:23;;;;;;;24.65;10.25;;;;;;;;;;6245473;28;19929;-63
2022/03/28 14:35:26;;;;;;;22.42;10.90;;;;;;;;;;6247397;28;20753;-61
2022/03/28 14:38:27;;;;;;;22.30;10.82;;;;;;;;;;6248709;28;20068;-65
2022/03/28 14:41:36;;;;;;;24.88;11.50;;;;;;;;;;6250884;28;20087;-64
2022/03/28 14:44:40;;;;;;;27.35;11.82;;;;;;;;;;6252644;28;20073;-65
2022/03/28 14:47:40;;;;;;;29.08;11.82;;;;;;;;;;6250685;28;20140;-65
2022/03/28 14:50:41;;;;;;;27.13;12.43;;;;;;;;;;6249181;28;20041;-65
2022/03/28 14:53:42;;;;;;;26.57;10.97;;;;;;;;;;6250043;28;20075;-64
2022/03/28 14:56:43;;;;;;;27.73;10.90;;;;;;;;;;6248877;28;20411;-65
2022/03/28 14:59:43;;;;;;;21.43;11.37;;;;;;;;;;6245386;28;20110;-62
2022/03/28 15:02:45;;;;;;;24.83;11.35;;;;;;;;;;6247690;28;20526;-63
2022/03/28 15:05:46;;;;;;;26.02;11.38;;;;;;;;;;6229790;28;20140;-60
2022/03/28 15:08:47;;;;;;;28.43;10.77;;;;;;;;;;6246393;28;20057;-63
2022/03/28 15:11:48;;;;;;;26.90;12.20;;;;;;;;;;6242836;28;20060;-65
2022/03/28 15:14:49;;;;;;;26.63;11.03;;;;;;;;;;6245007;28;20060;-64
2022/03/28 15:17:51;;;;;;;23.17;10.50;;;;;;;;;;6242166;28;20061;-64
2022/03/28 15:20:51;;;;;;;25.00;10.70;;;;;;;;;;6219067;28;20063;-67
2022/03/28 15:23:52;;;;;;;24.90;11.50;;;;;;;;;;6240993;28;20461;-65
2022/03/28 15:26:55;;;;;;;21.83;10.37;;;;;;;;;;6243679;28;20049;-65
2022/03/28 15:29:57;;;;;;;22.85;10.23;;;;;;;;;;6242660;28;20079;-60
2022/03/28 15:32:58;;;;;;;;;;;;;;;;;;6247292;28;20123;-61
2022/03/28 15:35:59;;;;;;;28.98;10.88;;;;;;;;;;6244145;28;20014;-62
2022/03/28 15:39:00;;;;;;;20.98;9.98;;;;;;;;;;6243936;28;20056;-65
2022/03/28 15:42:02;;;;;;;25.38;10.10;;;;;;;;;;6241834;28;20495;-63
2022/03/28 15:45:03;;;;;;;21.57;9.40;;;;;;;;;;6241761;28;20055;-58
2022/03/28 15:48:04;;;;;;;;;;;;;;;;;;6241464;28;20060;-61
2022/03/28 15:51:05;;;;;;;22.98;9.63;;;;;;;;;;6240570;28;20276;-60
2022/03/28 15:54:07;;;;;;;18.95;9.07;;;;;;;;;;6245345;28;21464;-62
2022/03/28 15:57:07;;;;;;;24.57;10.37;;;;;;;;;;6241930;28;20504;-60
2022/03/28 16:00:09;;;;;;;19.97;9.93;;;;;;;;;;6243433;28;20160;-59
2022/03/28 16:03:10;;;;;;;20.48;9.82;;;;;;;;;;6241084;28;20141;-62
2022/03/28 16:06:11;;;;;;;28.92;10.20;;;;;;;;;;6242824;28;20517;-66
2022/03/28 16:09:15;;;;;;;19.03;9.60;;;;;;;;;;6240595;28;20049;-61
2022/03/28 16:12:16;;;;;;;19.98;9.35;;;;;;;;;;6241225;28;20558;-60
2022/03/28 16:15:17;;;;;;;21.80;10.30;;;;;;;;;;6245104;28;20049;-67
2022/03/28 16:18:21;;;;;;;24.05;9.65;;;;;;;;;;6240907;28;20224;-67
2022/03/28 16:21:22;;;;;;;20.73;9.63;;;;;;;;;;6241925;28;20061;-67
2022/03/28 16:24:24;;;;;;;23.10;10.23;;;;;;;;;;6242262;28;20106;-65
2022/03/28 16:27:25;;;;;;;20.20;10.15;;;;;;;;;;6252082;28;20060;-65
2022/03/28 16:30:26;;;;;;;25.42;10.05;;;;;;;;;;6236867;28;20720;-64
2022/03/28 16:33:27;;;;;;;18.05;9.07;;;;;;;;;;6237764;28;20048;-65
2022/03/28 16:36:29;;;;;;;23.25;9.93;;;;;;;;;;6235785;28;20095;-61
2022/03/28 16:39:29;;;;;;;22.13;9.75;;;;;;;;;;6233780;28;20057;-65
2022/03/28 16:42:31;;;;;;;22.75;9.52;;;;;;;;;;6236176;28;20051;-64
2022/03/28 16:45:32;;;;;;;17.33;8.55;;;;;;;;;;6242394;28;20049;-62
2022/03/28 16:48:36;;;;;;;24.52;9.82;;;;;;;;;;6241853;28;20091;-65
2022/03/28 16:51:39;;;;;;;22.75;9.05;;;;;;;;;;6239675;28;20057;-67
2022/03/28 16:54:41;;;;;;;19.70;8.98;;;;;;;;;;6239923;28;20056;-60
2022/03/28 16:57:43;;;;;;;18.52;9.45;;;;;;;;;;6234774;28;20095;-65
2022/03/28 17:00:46;;;;;;;23.30;9.50;;;;;;;;;;6236851;28;20055;-66
2022/03/28 17:03:47;;;;;;;21.85;9.60;;;;;;;;;;6245420;28;20855;-60
2022/03/28 17:06:48;;;;;;;18.55;9.55;;;;;;;;;;6241404;28;20061;-66
2022/03/28 17:09:49;;;;;;;21.63;9.83;;;;;;;;;;6237627;28;20056;-61
2022/03/28 17:13:04;;;;;;;18.35;9.27;;;;;;;;;;6240228;28;20068;-62
2022/03/28 17:16:06;;;;;;;17.50;8.80;;;;;;;;;;6241336;28;20071;-66
2022/03/28 17:19:08;;;;;;;19.17;9.65;;;;;;;;;;6241420;28;20057;-63
2022/03/28 17:22:12;;;;;;;19.52;10.15;;;;;;;;;;6242491;28;20053;-65
2022/03/28 17:25:14;;;;;;;26.58;13.70;;;;;;;;;;6239638;28;20424;-66
2022/03/28 17:28:15;;;;;;;34.05;24.13;;;;;;;;;;6240059;28;20632;-66
2022/03/28 17:31:16;;;;;;;31.77;18.63;;;;;;;;;;6238708;28;20119;-61
2022/03/28 17:34:17;;;;;;;21.13;10.88;;;;;;;;;;6254675;28;20401;-60
2022/03/28 17:37:18;;;;;;;22.27;12.07;;;;;;;;;;6239719;28;20076;-59
2022/03/28 17:40:21;;;;;;;21.25;12.65;;;;;;;;;;6239625;28;20061;-66
2022/03/28 17:43:23;;;;;;;61.90;31.90;;;;;;;;;;6236516;28;20095;-67